createdAt,value
2022-09-16T00:00:09.083Z,10.58
2022-09-16T00:01:09.155Z,10.57
2022-09-16T00:02:09.162Z,10.54
2022-09-16T00:03:09.045Z,10.51
2022-09-16T00:04:09.036Z,10.54
2022-09-16T00:05:09.026Z,10.51
2022-09-16T00:06:09.017Z,10.51
2022-09-16T00:07:09.145Z,10.51
2022-09-16T00:08:08.994Z,10.52
2022-09-16T00:09:08.979Z,10.52
2022-09-16T00:10:08.971Z,10.49
2022-09-16T00:11:08.957Z,10.46
2022-09-16T00:12:08.946Z,10.43
2022-09-16T00:13:08.936Z,10.38
2022-09-16T00:14:08.927Z,10.43
2022-09-16T00:15:08.915Z,10.47
2022-09-16T00:16:08.943Z,10.52
2022-09-16T00:17:08.889Z,10.57
2022-09-16T00:18:08.914Z,10.63
2022-09-16T00:19:08.868Z,10.66
2022-09-16T00:20:08.863Z,10.66
2022-09-16T00:21:08.845Z,10.68
2022-09-16T00:22:08.834Z,10.69
2022-09-16T00:23:08.828Z,10.68
2022-09-16T00:24:08.813Z,10.66
2022-09-16T00:25:08.805Z,10.68
2022-09-16T00:26:08.794Z,10.69
2022-09-16T00:27:08.775Z,10.68
2022-09-16T00:28:08.769Z,10.68
2022-09-16T00:29:08.758Z,10.69
2022-09-16T00:30:08.748Z,10.72
2022-09-16T00:31:08.790Z,10.70
2022-09-16T00:32:08.724Z,10.72
2022-09-16T00:33:08.710Z,10.76
2022-09-16T00:34:08.730Z,10.75
2022-09-16T00:35:08.692Z,10.80
2022-09-16T00:36:08.680Z,10.83
2022-09-16T00:37:08.668Z,10.83
2022-09-16T00:38:08.657Z,10.90
2022-09-16T00:39:08.645Z,10.91
2022-09-16T00:40:08.723Z,10.90
2022-09-16T00:41:08.621Z,10.95
2022-09-16T00:42:08.611Z,10.94
2022-09-16T00:43:08.599Z,10.94
2022-09-16T00:44:08.589Z,10.98
2022-09-16T00:45:08.576Z,10.99
2022-09-16T00:46:08.569Z,10.93
2022-09-16T00:47:08.624Z,10.94
2022-09-16T00:48:08.547Z,10.93
2022-09-16T00:49:08.537Z,10.91
2022-09-16T00:50:08.550Z,10.90
2022-09-16T00:51:08.510Z,10.86
2022-09-16T00:52:08.499Z,10.84
2022-09-16T00:53:08.492Z,10.81
2022-09-16T00:54:08.481Z,10.81
2022-09-16T00:55:08.465Z,10.78
2022-09-16T00:56:08.459Z,10.78
2022-09-16T00:57:08.444Z,10.83
2022-09-16T00:58:08.433Z,10.78
2022-09-16T00:59:08.424Z,10.76
2022-09-16T01:00:08.412Z,10.75
2022-09-16T01:01:08.437Z,10.73
2022-09-16T01:02:08.491Z,10.70
2022-09-16T01:03:08.377Z,10.68
2022-09-16T01:04:08.367Z,10.65
2022-09-16T01:05:08.354Z,10.68
2022-09-16T01:06:08.375Z,10.63
2022-09-16T01:07:08.334Z,10.63
2022-09-16T01:08:08.322Z,10.58
2022-09-16T01:09:08.315Z,10.57
2022-09-16T01:10:08.298Z,10.62
2022-09-16T01:11:08.291Z,10.58
2022-09-16T01:12:08.281Z,10.58
2022-09-16T01:13:08.267Z,10.60
2022-09-16T01:14:08.258Z,10.62
2022-09-16T01:15:08.251Z,10.63
2022-09-16T01:16:08.319Z,10.60
2022-09-16T01:17:08.220Z,10.58
2022-09-16T01:18:08.211Z,10.63
2022-09-16T01:19:08.200Z,10.68
2022-09-16T01:20:08.189Z,10.68
2022-09-16T01:21:08.181Z,10.68
2022-09-16T01:22:08.195Z,10.69
2022-09-16T01:23:08.156Z,10.72
2022-09-16T01:24:08.153Z,10.72
2022-09-16T01:25:08.137Z,10.72
2022-09-16T01:26:08.128Z,10.72
2022-09-16T01:27:08.116Z,10.70
2022-09-16T01:28:08.106Z,10.73
2022-09-16T01:29:08.093Z,10.70
2022-09-16T01:30:08.084Z,10.70
2022-09-16T01:31:08.137Z,10.70
2022-09-16T01:32:08.063Z,10.70
2022-09-16T01:33:08.049Z,10.73
2022-09-16T01:34:08.040Z,10.75
2022-09-16T01:35:08.027Z,10.75
2022-09-16T01:36:08.018Z,10.72
2022-09-16T01:37:08.003Z,10.73
2022-09-16T01:38:08.022Z,10.73
2022-09-16T01:39:07.983Z,10.75
2022-09-16T01:40:08.047Z,10.72
2022-09-16T01:41:07.961Z,10.72
2022-09-16T01:42:07.950Z,10.75
2022-09-16T01:43:07.940Z,10.70
2022-09-16T01:44:07.930Z,10.72
2022-09-16T01:45:07.919Z,10.68
2022-09-16T01:46:07.954Z,10.66
2022-09-16T01:47:07.893Z,10.63
2022-09-16T01:48:07.890Z,10.62
2022-09-16T01:49:07.871Z,10.60
2022-09-16T01:50:07.860Z,10.55
2022-09-16T01:51:07.848Z,10.52
2022-09-16T01:52:07.836Z,10.51
2022-09-16T01:53:07.826Z,10.49
2022-09-16T01:54:07.846Z,10.51
2022-09-16T01:55:07.807Z,10.51
2022-09-16T01:56:07.795Z,10.47
2022-09-16T01:57:07.787Z,10.44
2022-09-16T01:58:07.816Z,10.43
2022-09-16T01:59:07.871Z,10.38
2022-09-16T02:00:07.759Z,10.32
2022-09-16T02:01:07.737Z,10.32
2022-09-16T02:02:07.902Z,10.36
2022-09-16T02:03:07.714Z,10.38
2022-09-16T02:04:07.704Z,10.39
2022-09-16T02:05:07.691Z,10.38
2022-09-16T02:06:07.682Z,10.39
2022-09-16T02:07:07.671Z,10.36
2022-09-16T02:08:07.659Z,10.34
2022-09-16T02:09:07.651Z,10.35
2022-09-16T02:10:07.659Z,10.42
2022-09-16T02:11:07.625Z,10.43
2022-09-16T02:12:07.615Z,10.44
2022-09-16T02:13:07.602Z,10.44
2022-09-16T02:14:07.593Z,10.49
2022-09-16T02:15:07.580Z,10.52
2022-09-16T02:16:07.646Z,10.54
2022-09-16T02:17:07.561Z,10.57
2022-09-16T02:18:07.559Z,10.62
2022-09-16T02:19:07.534Z,10.62
2022-09-16T02:20:07.526Z,10.63
2022-09-16T02:21:07.512Z,10.65
2022-09-16T02:22:07.504Z,10.69
2022-09-16T02:23:07.492Z,10.69
2022-09-16T02:24:07.485Z,10.68
2022-09-16T02:25:07.470Z,10.68
2022-09-16T02:26:07.486Z,10.68
2022-09-16T02:27:07.448Z,10.68
2022-09-16T02:28:07.444Z,10.70
2022-09-16T02:29:07.425Z,10.72
2022-09-16T02:30:07.414Z,10.72
2022-09-16T02:31:07.518Z,10.73
2022-09-16T02:32:07.396Z,10.76
2022-09-16T02:33:07.379Z,10.80
2022-09-16T02:34:07.372Z,10.72
2022-09-16T02:35:07.360Z,10.73
2022-09-16T02:36:07.351Z,10.75
2022-09-16T02:37:07.333Z,10.68
2022-09-16T02:38:07.325Z,10.70
2022-09-16T02:39:07.312Z,10.65
2022-09-16T02:40:07.408Z,10.66
2022-09-16T02:41:07.289Z,10.65
2022-09-16T02:42:07.304Z,10.65
2022-09-16T02:43:07.267Z,10.60
2022-09-16T02:44:07.266Z,10.55
2022-09-16T02:45:07.246Z,10.47
2022-09-16T02:46:07.297Z,10.43
2022-09-16T02:47:07.227Z,10.44
2022-09-16T02:48:07.218Z,10.39
2022-09-16T02:49:07.202Z,10.36
2022-09-16T02:50:07.191Z,10.36
2022-09-16T02:51:07.179Z,10.38
2022-09-16T02:52:07.171Z,10.36
2022-09-16T02:53:07.158Z,10.32
2022-09-16T02:54:07.147Z,10.31
2022-09-16T02:55:07.135Z,10.31
2022-09-16T02:56:07.126Z,10.28
2022-09-16T02:57:07.112Z,10.26
2022-09-16T02:58:07.126Z,10.26
2022-09-16T02:59:07.095Z,10.24
2022-09-16T03:00:07.080Z,10.24
2022-09-16T03:01:07.067Z,10.26
2022-09-16T03:02:07.100Z,10.26
2022-09-16T03:03:07.090Z,10.28
2022-09-16T03:04:07.036Z,10.31
2022-09-16T03:05:07.022Z,10.31
2022-09-16T03:06:07.016Z,10.26
2022-09-16T03:07:06.999Z,10.26
2022-09-16T03:08:06.991Z,10.22
2022-09-16T03:09:06.981Z,10.20
2022-09-16T03:10:06.970Z,10.14
2022-09-16T03:11:06.955Z,10.17
2022-09-16T03:12:06.947Z,10.18
2022-09-16T03:13:06.933Z,10.26
2022-09-16T03:14:06.945Z,10.20
2022-09-16T03:15:06.919Z,10.17
2022-09-16T03:16:07.029Z,10.18
2022-09-16T03:17:06.889Z,10.18
2022-09-16T03:18:06.879Z,10.18
2022-09-16T03:19:06.865Z,10.18
2022-09-16T03:20:06.857Z,10.20
2022-09-16T03:21:06.844Z,10.18
2022-09-16T03:22:06.834Z,10.16
2022-09-16T03:23:06.824Z,10.18
2022-09-16T03:24:06.812Z,10.25
2022-09-16T03:25:06.800Z,10.25
2022-09-16T03:26:06.791Z,10.25
2022-09-16T03:27:06.778Z,10.28
2022-09-16T03:28:06.766Z,10.28
2022-09-16T03:29:06.754Z,10.34
2022-09-16T03:30:06.769Z,10.38
2022-09-16T03:31:06.766Z,10.35
2022-09-16T03:32:06.723Z,10.38
2022-09-16T03:33:06.711Z,10.42
2022-09-16T03:34:06.700Z,10.43
2022-09-16T03:35:06.690Z,10.43
2022-09-16T03:36:06.679Z,10.44
2022-09-16T03:37:06.665Z,10.51
2022-09-16T03:38:06.655Z,10.51
2022-09-16T03:39:06.642Z,10.55
2022-09-16T03:40:06.720Z,10.57
2022-09-16T03:41:06.627Z,10.55
2022-09-16T03:42:06.611Z,10.55
2022-09-16T03:43:06.599Z,10.58
2022-09-16T03:44:06.595Z,10.60
2022-09-16T03:45:06.580Z,10.65
2022-09-16T03:46:06.631Z,10.60
2022-09-16T03:47:06.555Z,10.58
2022-09-16T03:48:06.544Z,10.57
2022-09-16T03:49:06.532Z,10.54
2022-09-16T03:50:06.521Z,10.57
2022-09-16T03:51:06.510Z,10.51
2022-09-16T03:52:06.498Z,10.43
2022-09-16T03:53:06.487Z,10.38
2022-09-16T03:54:06.479Z,10.31
2022-09-16T03:55:06.464Z,10.29
2022-09-16T03:56:06.454Z,10.26
2022-09-16T03:57:06.442Z,10.28
2022-09-16T03:58:06.434Z,10.26
2022-09-16T03:59:06.425Z,10.31
2022-09-16T04:00:06.659Z,10.26
2022-09-16T04:01:06.490Z,10.29
2022-09-16T04:02:06.472Z,10.29
2022-09-16T04:03:06.430Z,10.29
2022-09-16T04:04:06.390Z,10.28
2022-09-16T04:05:06.411Z,10.24
2022-09-16T04:06:06.390Z,10.28
2022-09-16T04:07:06.368Z,10.28
2022-09-16T04:08:06.344Z,10.26
2022-09-16T04:09:06.428Z,10.28
2022-09-16T04:10:06.316Z,10.28
2022-09-16T04:11:06.287Z,10.28
2022-09-16T04:12:06.278Z,10.32
2022-09-16T04:13:06.272Z,10.29
2022-09-16T04:14:06.254Z,10.34
2022-09-16T04:15:06.244Z,10.34
2022-09-16T04:16:06.304Z,10.36
2022-09-16T04:17:06.222Z,10.39
2022-09-16T04:18:06.235Z,10.38
2022-09-16T04:19:06.198Z,10.42
2022-09-16T04:20:06.186Z,10.43
2022-09-16T04:21:06.378Z,10.47
2022-09-16T04:22:06.164Z,10.49
2022-09-16T04:23:06.154Z,10.46
2022-09-16T04:24:09.512Z,10.47
2022-09-16T04:25:06.136Z,10.44
2022-09-16T04:26:06.129Z,10.46
2022-09-16T04:27:06.108Z,10.42
2022-09-16T04:28:06.094Z,10.38
2022-09-16T04:29:06.086Z,10.38
2022-09-16T04:30:06.076Z,10.38
2022-09-16T04:31:06.138Z,10.38
2022-09-16T04:32:06.055Z,10.39
2022-09-16T04:33:06.042Z,10.42
2022-09-16T04:34:06.087Z,10.43
2022-09-16T04:35:06.022Z,10.39
2022-09-16T04:36:06.333Z,10.36
2022-09-16T04:37:05.999Z,10.36
2022-09-16T04:38:05.986Z,10.34
2022-09-16T04:39:05.976Z,10.35
2022-09-16T04:40:06.000Z,10.31
2022-09-16T04:41:05.958Z,10.31
2022-09-16T04:42:05.941Z,10.31
2022-09-16T04:43:05.931Z,10.32
2022-09-16T04:44:05.919Z,10.32
2022-09-16T04:45:05.912Z,10.34
2022-09-16T04:46:05.935Z,10.38
2022-09-16T04:47:05.886Z,10.38
2022-09-16T04:48:05.874Z,10.42
2022-09-16T04:49:05.865Z,10.42
2022-09-16T04:50:05.877Z,10.38
2022-09-16T04:51:05.844Z,10.38
2022-09-16T04:52:05.829Z,10.38
2022-09-16T04:53:05.821Z,10.38
2022-09-16T04:54:05.807Z,10.36
2022-09-16T04:55:05.799Z,10.32
2022-09-16T04:56:05.786Z,10.32
2022-09-16T04:57:05.780Z,10.29
2022-09-16T04:58:05.763Z,10.26
2022-09-16T04:59:05.753Z,10.24
2022-09-16T05:00:05.740Z,10.20
2022-09-16T05:01:05.787Z,10.20
2022-09-16T05:02:05.718Z,10.18
2022-09-16T05:03:05.745Z,10.13
2022-09-16T05:04:05.695Z,10.11
2022-09-16T05:05:05.687Z,10.09
2022-09-16T05:06:05.702Z,10.09
2022-09-16T05:07:05.668Z,10.07
2022-09-16T05:08:05.652Z,10.06
2022-09-16T05:09:05.645Z,10.06
2022-09-16T05:10:05.630Z,10.04
2022-09-16T05:11:05.619Z,10.04
2022-09-16T05:12:05.607Z,10.02
2022-09-16T05:13:05.596Z,10.01
2022-09-16T05:14:05.587Z,9.96
2022-09-16T05:15:05.574Z,10.04
2022-09-16T05:16:05.637Z,10.04
2022-09-16T05:17:05.550Z,10.09
2022-09-16T05:18:05.543Z,10.11
2022-09-16T05:19:05.531Z,10.14
2022-09-16T05:20:05.518Z,10.17
2022-09-16T05:21:05.506Z,10.22
2022-09-16T05:22:05.614Z,10.18
2022-09-16T05:23:05.492Z,10.17
2022-09-16T05:24:05.474Z,10.18
2022-09-16T05:25:05.468Z,10.16
2022-09-16T05:26:05.453Z,10.16
2022-09-16T05:27:05.441Z,10.16
2022-09-16T05:28:05.427Z,10.14
2022-09-16T05:29:05.421Z,10.16
2022-09-16T05:30:05.406Z,10.13
2022-09-16T05:31:05.490Z,10.14
2022-09-16T05:32:05.381Z,10.10
2022-09-16T05:33:05.377Z,10.17
2022-09-16T05:34:05.363Z,10.18
2022-09-16T05:35:05.351Z,10.18
2022-09-16T05:36:05.336Z,10.18
2022-09-16T05:37:05.329Z,10.17
2022-09-16T05:38:05.435Z,10.13
2022-09-16T05:39:22.078Z,10.13
2022-09-16T05:40:05.328Z,10.10
2022-09-16T05:41:05.291Z,10.10
2022-09-16T05:42:05.274Z,10.09
2022-09-16T05:43:05.261Z,10.10
2022-09-16T05:44:05.253Z,10.06
2022-09-16T05:45:05.250Z,10.04
2022-09-16T05:46:05.300Z,10.06
2022-09-16T05:47:05.218Z,10.07
2022-09-16T05:48:05.207Z,10.06
2022-09-16T05:49:05.195Z,10.10
2022-09-16T05:50:05.186Z,10.09
2022-09-16T05:51:05.174Z,10.07
2022-09-16T05:52:05.161Z,10.09
2022-09-16T05:53:05.154Z,10.11
2022-09-16T05:54:05.318Z,10.09
2022-09-16T05:55:05.186Z,10.11
2022-09-16T05:56:05.226Z,10.13
2022-09-16T05:57:07.242Z,10.14
2022-09-16T05:58:05.275Z,10.22
2022-09-16T05:59:05.215Z,10.22
2022-09-16T06:00:05.225Z,10.26
2022-09-16T06:01:05.212Z,10.28
2022-09-16T06:02:05.171Z,10.39
2022-09-16T06:03:05.038Z,10.46
2022-09-16T06:04:05.026Z,10.51
2022-09-16T06:05:05.018Z,10.63
2022-09-16T06:06:05.002Z,10.68
2022-09-16T06:07:04.997Z,10.70
2022-09-16T06:08:04.999Z,10.69
2022-09-16T06:09:04.995Z,10.63
2022-09-16T06:10:05.075Z,10.57
2022-09-16T06:11:04.949Z,10.46
2022-09-16T06:12:04.936Z,10.43
2022-09-16T06:13:04.927Z,10.36
2022-09-16T06:14:04.914Z,10.34
2022-09-16T06:15:04.905Z,10.29
2022-09-16T06:16:04.955Z,10.31
2022-09-16T06:17:04.879Z,10.32
2022-09-16T06:18:06.591Z,10.31
2022-09-16T06:19:04.862Z,10.32
2022-09-16T06:20:04.863Z,10.35
2022-09-16T06:21:04.835Z,10.32
2022-09-16T06:22:04.830Z,10.36
2022-09-16T06:23:04.814Z,10.36
2022-09-16T06:24:04.800Z,10.39
2022-09-16T06:25:04.791Z,10.38
2022-09-16T06:26:04.999Z,10.42
2022-09-16T06:27:04.772Z,10.43
2022-09-16T06:28:04.755Z,10.44
2022-09-16T06:29:04.750Z,10.46
2022-09-16T06:30:04.736Z,10.51
2022-09-16T06:31:04.771Z,10.46
2022-09-16T06:32:04.716Z,10.51
2022-09-16T06:33:04.703Z,10.51
2022-09-16T06:34:04.689Z,10.51
2022-09-16T06:35:04.678Z,10.54
2022-09-16T06:36:04.665Z,10.62
2022-09-16T06:37:04.655Z,10.72
2022-09-16T06:38:04.643Z,10.69
2022-09-16T06:39:04.631Z,10.70
2022-09-16T06:40:04.670Z,10.70
2022-09-16T06:41:04.609Z,10.72
2022-09-16T06:42:04.736Z,10.75
2022-09-16T06:43:04.602Z,10.84
2022-09-16T06:44:04.574Z,10.93
2022-09-16T06:45:04.562Z,11.05
2022-09-16T06:46:04.607Z,11.16
2022-09-16T06:47:04.545Z,11.27
2022-09-16T06:48:04.529Z,11.20
2022-09-16T06:49:06.431Z,11.20
2022-09-16T06:50:04.505Z,11.19
2022-09-16T06:51:04.504Z,11.13
2022-09-16T06:52:04.483Z,11.35
2022-09-16T06:53:04.474Z,11.42
2022-09-16T06:54:04.482Z,11.63
2022-09-16T06:55:04.458Z,11.90
2022-09-16T06:56:04.442Z,11.85
2022-09-16T06:57:06.572Z,12.04
2022-09-16T06:58:04.532Z,12.22
2022-09-16T06:59:04.409Z,12.31
2022-09-16T07:00:04.394Z,12.51
2022-09-16T07:01:04.436Z,12.74
2022-09-16T07:02:04.426Z,12.96
2022-09-16T07:03:04.361Z,12.99
2022-09-16T07:04:04.350Z,13.24
2022-09-16T07:05:04.415Z,13.22
2022-09-16T07:06:04.356Z,12.74
2022-09-16T07:07:09.765Z,13.03
2022-09-16T07:08:05.330Z,13.07
2022-09-16T07:09:04.294Z,13.12
2022-09-16T07:10:04.280Z,13.38
2022-09-16T07:11:04.272Z,13.62
2022-09-16T07:12:04.259Z,13.61
2022-09-16T07:13:04.249Z,13.87
2022-09-16T07:14:04.361Z,13.96
2022-09-16T07:15:04.224Z,13.96
2022-09-16T07:16:19.582Z,14.11
2022-09-16T07:17:05.257Z,14.16
2022-09-16T07:18:04.194Z,14.23
2022-09-16T07:19:04.592Z,14.30
2022-09-16T07:20:04.166Z,14.31
2022-09-16T07:21:04.164Z,14.29
2022-09-16T07:22:04.144Z,14.42
2022-09-16T07:23:04.138Z,14.53
2022-09-16T07:24:04.126Z,14.44
2022-09-16T07:25:04.114Z,14.34
2022-09-16T07:26:04.100Z,14.45
2022-09-16T07:27:04.107Z,14.71
2022-09-16T07:28:04.092Z,14.57
2022-09-16T07:29:04.095Z,14.83
2022-09-16T07:30:08.857Z,14.94
2022-09-16T07:31:04.091Z,15.03
2022-09-16T07:32:04.035Z,15.25
2022-09-16T07:33:04.027Z,15.18
2022-09-16T07:34:04.929Z,15.35
2022-09-16T07:35:04.003Z,15.44
2022-09-16T07:36:04.000Z,15.37
2022-09-16T07:37:03.982Z,15.34
2022-09-16T07:38:03.967Z,15.68
2022-09-16T07:39:03.981Z,16.01
2022-09-16T07:40:04.041Z,16.04
2022-09-16T07:41:03.944Z,15.96
2022-09-16T07:42:06.021Z,15.96
2022-09-16T07:43:03.913Z,16.13
2022-09-16T07:44:03.902Z,16.06
2022-09-16T07:45:03.892Z,16.01
2022-09-16T07:46:04.051Z,15.99
2022-09-16T07:47:03.868Z,15.96
2022-09-16T07:48:03.854Z,16.01
2022-09-16T07:49:03.846Z,15.99
2022-09-16T07:50:03.835Z,16.03
2022-09-16T07:51:03.832Z,16.01
2022-09-16T07:52:03.839Z,16.26
2022-09-16T07:53:03.803Z,16.33
2022-09-16T07:54:03.792Z,16.22
2022-09-16T07:55:03.781Z,16.11
2022-09-16T07:56:03.771Z,15.98
2022-09-16T07:57:03.761Z,15.96
2022-09-16T07:58:03.744Z,16.36
2022-09-16T07:59:03.740Z,16.62
2022-09-16T08:00:03.724Z,16.75
2022-09-16T08:01:05.117Z,16.87
2022-09-16T08:02:03.951Z,17.06
2022-09-16T08:03:03.731Z,17.25
2022-09-16T08:04:03.680Z,17.40
2022-09-16T08:05:03.669Z,17.40
2022-09-16T08:06:03.657Z,17.17
2022-09-16T08:07:03.648Z,17.05
2022-09-16T08:08:03.631Z,17.07
2022-09-16T08:09:15.300Z,17.14
2022-09-16T08:10:03.622Z,17.25
2022-09-16T08:11:03.601Z,17.30
2022-09-16T08:12:03.590Z,17.20
2022-09-16T08:13:03.578Z,17.33
2022-09-16T08:14:03.569Z,17.30
2022-09-16T08:15:03.560Z,17.33
2022-09-16T08:16:03.549Z,17.40
2022-09-16T08:17:03.533Z,17.25
2022-09-16T08:18:03.656Z,17.38
2022-09-16T08:19:03.517Z,17.43
2022-09-16T08:20:03.503Z,17.62
2022-09-16T08:21:03.490Z,17.86
2022-09-16T08:22:03.479Z,17.98
2022-09-16T08:23:03.478Z,17.89
2022-09-16T08:24:03.483Z,17.94
2022-09-16T08:25:03.458Z,17.83
2022-09-16T08:26:03.438Z,18.02
2022-09-16T08:27:03.425Z,17.87
2022-09-16T08:28:03.414Z,17.77
2022-09-16T08:29:10.692Z,17.68
2022-09-16T08:30:04.424Z,17.80
2022-09-16T08:31:03.381Z,17.84
2022-09-16T08:32:03.467Z,17.74
2022-09-16T08:33:03.355Z,17.86
2022-09-16T08:34:03.466Z,18.02
2022-09-16T08:35:03.334Z,18.14
2022-09-16T08:36:03.325Z,18.14
2022-09-16T08:37:03.311Z,18.20
2022-09-16T08:38:03.316Z,18.26
2022-09-16T08:39:03.301Z,18.23
2022-09-16T08:40:03.402Z,18.21
2022-09-16T08:41:03.267Z,18.01
2022-09-16T08:42:03.263Z,18.10
2022-09-16T08:43:03.246Z,17.94
2022-09-16T08:44:03.240Z,18.07
2022-09-16T08:45:03.225Z,18.56
2022-09-16T08:46:03.294Z,18.78
2022-09-16T08:47:03.205Z,18.09
2022-09-16T08:48:03.193Z,17.79
2022-09-16T08:49:03.213Z,17.91
2022-09-16T08:50:03.309Z,17.91
2022-09-16T08:51:03.160Z,18.13
2022-09-16T08:52:03.151Z,18.31
2022-09-16T08:53:03.137Z,18.51
2022-09-16T08:54:03.127Z,18.76
2022-09-16T08:55:03.121Z,19.02
2022-09-16T08:56:03.105Z,19.13
2022-09-16T08:57:03.104Z,19.30
2022-09-16T08:58:03.120Z,19.53
2022-09-16T08:59:03.080Z,19.24
2022-09-16T09:00:03.065Z,19.16
2022-09-16T09:01:03.310Z,19.53
2022-09-16T09:02:08.901Z,19.52
2022-09-16T09:03:03.088Z,19.49
2022-09-16T09:04:03.020Z,19.38
2022-09-16T09:05:03.010Z,19.13
2022-09-16T09:06:03.136Z,19.27
2022-09-16T09:07:03.021Z,19.53
2022-09-16T09:08:03.000Z,19.30
2022-09-16T09:09:02.962Z,19.30
2022-09-16T09:10:05.963Z,19.46
2022-09-16T09:11:02.939Z,19.82
2022-09-16T09:12:02.930Z,20.12
2022-09-16T09:13:03.292Z,20.73
2022-09-16T09:14:02.905Z,20.68
2022-09-16T09:15:02.897Z,20.07
2022-09-16T09:16:02.960Z,19.42
2022-09-16T09:17:02.872Z,18.36
2022-09-16T09:18:02.864Z,17.62
2022-09-16T09:19:03.155Z,17.49
2022-09-16T09:20:02.843Z,17.84
2022-09-16T09:21:02.840Z,18.50
2022-09-16T09:22:02.958Z,19.05
2022-09-16T09:23:02.807Z,19.61
2022-09-16T09:24:02.804Z,19.55
2022-09-16T09:25:02.787Z,19.83
2022-09-16T09:26:02.778Z,19.92
2022-09-16T09:27:02.772Z,20.15
2022-09-16T09:28:02.806Z,20.38
2022-09-16T09:29:02.744Z,20.58
2022-09-16T09:30:02.728Z,20.61
2022-09-16T09:31:06.209Z,20.63
2022-09-16T09:32:02.836Z,19.76
2022-09-16T09:33:02.814Z,19.70
2022-09-16T09:34:02.709Z,20.07
2022-09-16T09:35:02.676Z,20.23
2022-09-16T09:36:02.672Z,19.72
2022-09-16T09:37:02.657Z,19.02
2022-09-16T09:38:02.776Z,18.76
2022-09-16T09:39:02.635Z,19.31
2022-09-16T09:40:02.687Z,19.12
2022-09-16T09:41:02.611Z,18.87
2022-09-16T09:42:02.600Z,18.49
2022-09-16T09:43:02.587Z,18.10
2022-09-16T09:44:02.577Z,17.66
2022-09-16T09:45:02.760Z,17.81
2022-09-16T09:46:02.606Z,17.32
2022-09-16T09:47:02.559Z,16.98
2022-09-16T09:48:02.535Z,16.78
2022-09-16T09:49:02.521Z,16.88
2022-09-16T09:50:02.511Z,17.92
2022-09-16T09:51:02.501Z,18.68
2022-09-16T09:52:02.492Z,19.55
2022-09-16T09:53:02.482Z,19.10
2022-09-16T09:54:02.603Z,19.21
2022-09-16T09:55:02.455Z,18.83
2022-09-16T09:56:02.444Z,18.41
2022-09-16T09:57:02.433Z,18.25
2022-09-16T09:58:02.423Z,17.83
2022-09-16T09:59:02.596Z,17.74
2022-09-16T10:00:02.413Z,18.91
2022-09-16T10:01:02.452Z,18.96
2022-09-16T10:02:02.501Z,19.31
2022-09-16T10:03:02.376Z,18.90
2022-09-16T10:04:02.361Z,18.41
2022-09-16T10:05:02.346Z,18.59
2022-09-16T10:06:02.339Z,19.09
2022-09-16T10:08:02.476Z,20.17
2022-09-16T10:09:02.575Z,20.40
2022-09-16T10:10:02.425Z,20.72
2022-09-16T10:11:02.278Z,20.73
2022-09-16T10:12:02.267Z,20.44
2022-09-16T10:13:02.260Z,20.27
2022-09-16T10:14:02.255Z,20.50
2022-09-16T10:15:02.238Z,21.06
2022-09-16T10:16:02.271Z,21.18
2022-09-16T10:17:02.214Z,21.08
2022-09-16T10:18:02.419Z,20.83
2022-09-16T10:19:02.197Z,20.90
2022-09-16T10:20:02.183Z,21.08
2022-09-16T10:21:02.176Z,21.26
2022-09-16T10:22:02.163Z,21.16
2022-09-16T10:23:02.150Z,21.75
2022-09-16T10:24:02.138Z,21.93
2022-09-16T10:25:02.127Z,22.41
2022-09-16T10:26:02.251Z,22.54
2022-09-16T10:27:02.100Z,21.81
2022-09-16T10:28:02.100Z,20.71
2022-09-16T10:29:02.086Z,20.58
2022-09-16T10:30:02.077Z,20.17
2022-09-16T10:31:02.161Z,19.61
2022-09-16T10:32:02.083Z,19.95
2022-09-16T10:33:02.039Z,19.43
2022-09-16T10:34:02.050Z,19.75
2022-09-16T10:35:02.022Z,19.76
2022-09-16T10:36:02.015Z,19.71
2022-09-16T10:37:01.996Z,19.10
2022-09-16T10:38:02.189Z,18.57
2022-09-16T10:39:04.786Z,18.13
2022-09-16T10:40:02.052Z,18.36
2022-09-16T10:41:01.951Z,19.16
2022-09-16T10:42:02.074Z,18.71
2022-09-16T10:43:01.928Z,18.57
2022-09-16T10:44:01.922Z,18.23
2022-09-16T10:45:01.918Z,17.63
2022-09-16T10:46:01.994Z,17.33
2022-09-16T10:47:01.886Z,17.09
2022-09-16T10:48:04.879Z,17.10
2022-09-16T10:49:01.864Z,17.02
2022-09-16T10:50:01.853Z,16.85
2022-09-16T10:51:01.845Z,16.84
2022-09-16T10:52:01.830Z,16.80
2022-09-16T10:53:01.818Z,16.88
2022-09-16T10:54:01.827Z,17.21
2022-09-16T10:55:01.796Z,18.04
2022-09-16T10:56:01.843Z,18.07
2022-09-16T10:57:01.786Z,18.25
2022-09-16T10:58:01.901Z,18.54
2022-09-16T10:59:01.771Z,19.32
2022-09-16T11:00:01.853Z,19.95
2022-09-16T11:01:01.975Z,20.33
2022-09-16T11:02:02.017Z,19.95
2022-09-16T11:03:01.705Z,19.06
2022-09-16T11:04:01.903Z,18.32
2022-09-16T11:05:02.612Z,18.29
2022-09-16T11:06:01.905Z,18.35
2022-09-16T11:07:01.854Z,19.15
2022-09-16T11:08:01.712Z,19.79
2022-09-16T11:09:01.911Z,20.27
2022-09-16T11:10:01.907Z,20.91
2022-09-16T11:11:01.657Z,21.18
2022-09-16T11:12:01.608Z,21.77
2022-09-16T11:13:01.597Z,22.01
2022-09-16T11:14:02.012Z,21.81
2022-09-16T11:15:01.584Z,21.51
2022-09-16T11:16:01.635Z,21.82
2022-09-16T11:17:01.618Z,21.77
2022-09-16T11:18:01.548Z,21.51
2022-09-16T11:19:01.536Z,21.90
2022-09-16T11:20:01.530Z,22.15
2022-09-16T11:21:01.509Z,22.48
2022-09-16T11:22:01.498Z,22.09
2022-09-16T11:23:01.494Z,21.45
2022-09-16T11:24:01.478Z,21.01
2022-09-16T11:25:01.470Z,20.42
2022-09-16T11:26:01.475Z,19.64
2022-09-16T11:27:01.455Z,18.76
2022-09-16T11:28:01.435Z,18.36
2022-09-16T11:29:01.421Z,17.58
2022-09-16T11:30:01.549Z,16.48
2022-09-16T11:31:01.461Z,15.68
2022-09-16T11:32:01.390Z,15.19
2022-09-16T11:33:02.994Z,14.86
2022-09-16T11:34:01.496Z,14.87
2022-09-16T11:35:01.359Z,14.82
2022-09-16T11:36:01.347Z,14.75
2022-09-16T11:37:01.399Z,14.52
2022-09-16T11:38:01.326Z,14.48
2022-09-16T11:39:01.316Z,14.54
2022-09-16T11:40:01.349Z,14.45
2022-09-16T11:41:01.291Z,14.61
2022-09-16T11:42:01.281Z,14.83
2022-09-16T11:43:01.272Z,14.98
2022-09-16T11:44:01.359Z,15.05
2022-09-16T11:45:01.248Z,15.18
2022-09-16T11:46:01.372Z,15.28
2022-09-16T11:47:01.223Z,15.40
2022-09-16T11:48:01.239Z,15.27
2022-09-16T11:49:01.203Z,15.31
2022-09-16T11:50:01.220Z,15.38
2022-09-16T11:51:01.183Z,15.44
2022-09-16T11:52:01.184Z,15.44
2022-09-16T11:53:04.653Z,15.30
2022-09-16T11:54:02.105Z,15.34
2022-09-16T11:55:01.136Z,15.43
2022-09-16T11:56:01.130Z,15.35
2022-09-16T11:57:01.130Z,15.38
2022-09-16T11:58:01.107Z,15.53
2022-09-16T11:59:01.095Z,15.51
2022-09-16T12:00:01.086Z,15.43
2022-09-16T12:01:01.073Z,15.44
2022-09-16T12:02:01.257Z,15.41
2022-09-16T12:03:01.123Z,15.35
2022-09-16T12:04:01.042Z,15.34
2022-09-16T12:05:01.038Z,15.30
2022-09-16T12:06:01.035Z,15.28
2022-09-16T12:07:01.016Z,15.22
2022-09-16T12:08:00.993Z,15.20
2022-09-16T12:09:00.984Z,15.12
2022-09-16T12:10:00.974Z,15.09
2022-09-16T12:11:01.011Z,15.11
2022-09-16T12:12:00.952Z,15.18
2022-09-16T12:13:00.940Z,15.25
2022-09-16T12:14:06.121Z,15.35
2022-09-16T12:15:04.762Z,15.48
2022-09-16T12:16:00.926Z,15.60
2022-09-16T12:17:00.911Z,15.71
2022-09-16T12:18:01.025Z,15.96
2022-09-16T12:19:00.875Z,16.30
2022-09-16T12:20:00.862Z,16.67
2022-09-16T12:21:00.850Z,16.82
2022-09-16T12:22:00.841Z,16.70
2022-09-16T12:23:00.830Z,16.67
2022-09-16T12:24:00.818Z,16.59
2022-09-16T12:25:00.807Z,16.51
2022-09-16T12:26:00.799Z,16.57
2022-09-16T12:27:00.799Z,16.66
2022-09-16T12:28:00.778Z,16.55
2022-09-16T12:29:00.762Z,16.60
2022-09-16T12:30:00.750Z,16.75
2022-09-16T12:31:00.816Z,17.25
2022-09-16T12:32:00.729Z,17.51
2022-09-16T12:33:00.717Z,17.80
2022-09-16T12:34:00.838Z,17.87
2022-09-16T12:35:00.694Z,18.19
2022-09-16T12:36:00.704Z,18.36
2022-09-16T12:37:00.829Z,18.21
2022-09-16T12:38:00.722Z,18.01
2022-09-16T12:39:00.663Z,17.74
2022-09-16T12:40:00.655Z,17.65
2022-09-16T12:41:00.890Z,17.53
2022-09-16T12:42:00.616Z,17.46
2022-09-16T12:43:00.605Z,17.53
2022-09-16T12:44:16.664Z,17.47
2022-09-16T12:45:01.615Z,17.42
2022-09-16T12:46:00.616Z,17.17
2022-09-16T12:47:00.565Z,17.15
2022-09-16T12:48:00.548Z,17.17
2022-09-16T12:49:00.558Z,17.22
2022-09-16T12:50:00.654Z,17.20
2022-09-16T12:51:00.517Z,17.20
2022-09-16T12:52:00.506Z,17.15
2022-09-16T12:53:00.498Z,17.20